createdAt,value
2019-02-07T00:01:09.460Z,115.37
2019-02-07T00:03:38.877Z,101.07
2019-02-07T00:06:08.189Z,107.10
2019-02-07T00:08:37.605Z,117.17
2019-02-07T00:11:06.985Z,112.83
2019-02-07T00:13:36.340Z,116.97
2019-02-07T00:16:05.657Z,118.63
2019-02-07T00:18:35.072Z,114.23
2019-02-07T00:21:04.371Z,116.27
2019-02-07T00:23:34.693Z,127.23
2019-02-07T00:26:04.005Z,110.33
2019-02-07T00:28:33.350Z,126.63
2019-02-07T00:31:02.658Z,115.20
2019-02-07T00:33:31.996Z,120.33
2019-02-07T00:36:01.301Z,120.33
2019-02-07T00:38:31.614Z,121.03
2019-02-07T00:41:00.917Z,117.00
2019-02-07T00:43:30.343Z,120.23
2019-02-07T00:45:59.655Z,122.03
2019-02-07T00:48:29.314Z,122.70
2019-02-07T00:50:58.613Z,132.10
2019-02-07T00:53:28.048Z,122.17
2019-02-07T00:55:57.429Z,124.37
2019-02-07T00:58:26.773Z,119.87
2019-02-07T01:00:56.085Z,124.07
2019-02-07T01:03:25.740Z,127.53
2019-02-07T01:05:55.044Z,122.97
2019-02-07T01:08:24.402Z,132.10
2019-02-07T01:10:53.720Z,126.83
2019-02-07T01:13:23.090Z,123.27
2019-02-07T01:15:52.469Z,118.07
2019-02-07T01:18:22.016Z,137.63
2019-02-07T01:20:51.364Z,124.90
2019-02-07T01:23:20.690Z,127.27
2019-02-07T01:25:50.025Z,125.87
2019-02-07T01:28:19.333Z,132.43
2019-02-07T01:30:48.684Z,127.83
2019-02-07T01:33:18.302Z,126.87
2019-02-07T01:35:47.724Z,133.60
2019-02-07T01:38:17.041Z,140.10
2019-02-07T01:40:46.404Z,127.70
2019-02-07T01:43:15.720Z,124.23
2019-02-07T01:45:45.081Z,131.13
2019-02-07T01:48:14.776Z,139.30
2019-02-07T01:50:44.128Z,131.27
2019-02-07T01:53:13.441Z,131.57
2019-02-07T01:55:42.798Z,133.87
2019-02-07T01:58:12.113Z,126.03
2019-02-07T02:00:41.540Z,124.57
2019-02-07T02:03:11.253Z,128.77
2019-02-07T02:05:40.678Z,131.93
2019-02-07T02:08:09.984Z,121.47
2019-02-07T02:10:39.336Z,132.10
2019-02-07T02:13:08.648Z,133.73
2019-02-07T02:15:38.005Z,124.80
2019-02-07T02:18:07.616Z,127.20
2019-02-07T02:20:36.968Z,135.23
2019-02-07T02:23:06.274Z,125.90
2019-02-07T02:25:35.624Z,119.50
2019-02-07T02:28:04.936Z,125.63
2019-02-07T02:30:35.737Z,129.57
2019-02-07T02:33:05.343Z,129.97
2019-02-07T02:35:34.692Z,125.07
2019-02-07T02:38:04.008Z,128.60
2019-02-07T02:40:33.365Z,120.03
2019-02-07T02:43:02.674Z,127.53
2019-02-07T02:45:37.547Z,132.97
2019-02-07T02:48:03.061Z,119.40
2019-02-07T02:50:32.405Z,117.63
2019-02-07T02:53:01.721Z,126.37
2019-02-07T02:55:35.411Z,124.77
2019-02-07T02:58:05.756Z,121.07
2019-02-07T03:00:36.745Z,131.10
2019-02-07T03:03:13.551Z,125.03
2019-02-07T03:05:50.061Z,117.33
2019-02-07T03:08:21.024Z,125.97
2019-02-07T03:11:04.150Z,116.03
2019-02-07T03:13:35.174Z,113.47
2019-02-07T03:16:06.145Z,130.70
2019-02-07T03:18:54.069Z,128.23
2019-02-07T03:21:37.062Z,123.87
2019-02-07T03:24:25.907Z,124.00
2019-02-07T03:27:08.961Z,120.30
2019-02-07T03:29:48.989Z,128.87
2019-02-07T03:32:25.794Z,119.57
2019-02-07T03:34:56.906Z,133.03
2019-02-07T03:37:30.871Z,123.73
2019-02-07T03:40:04.778Z,125.00
2019-02-07T03:42:41.479Z,140.07
2019-02-07T03:45:18.378Z,138.87
2019-02-07T03:47:52.033Z,132.83
2019-02-07T03:50:31.954Z,122.80
2019-02-07T03:53:02.941Z,128.20
2019-02-07T03:55:36.585Z,125.97
2019-02-07T03:58:13.536Z,124.27
2019-02-07T04:00:47.464Z,126.03
2019-02-07T04:03:21.184Z,132.83
2019-02-07T04:06:08.168Z,128.10
2019-02-07T04:08:51.210Z,129.63
2019-02-07T04:11:28.025Z,132.37
2019-02-07T04:14:05.106Z,136.13
2019-02-07T04:16:52.385Z,132.67
2019-02-07T04:19:23.581Z,125.93
2019-02-07T04:21:54.692Z,137.90
2019-02-07T04:24:27.148Z,121.13
2019-02-07T04:27:01.057Z,125.50
2019-02-07T04:29:32.210Z,120.47
2019-02-07T04:32:03.153Z,129.63
2019-02-07T04:34:42.920Z,128.93
2019-02-07T04:37:19.576Z,120.73
2019-02-07T04:39:53.270Z,123.00
2019-02-07T04:42:24.223Z,131.13
2019-02-07T04:44:57.973Z,129.27
2019-02-07T04:47:37.769Z,130.73
2019-02-07T04:50:26.229Z,113.07
2019-02-07T04:53:02.659Z,114.80
2019-02-07T04:55:51.482Z,129.00
2019-02-07T04:58:34.459Z,119.93
2019-02-07T05:01:14.599Z,121.97
2019-02-07T05:04:01.911Z,133.10
2019-02-07T05:06:35.867Z,128.73
2019-02-07T05:09:08.465Z,119.20
2019-02-07T05:11:39.443Z,123.43
2019-02-07T05:14:26.448Z,123.50
2019-02-07T05:17:00.172Z,117.10
2019-02-07T05:19:34.432Z,137.63
2019-02-07T05:22:08.134Z,126.30
2019-02-07T05:24:55.328Z,127.73
2019-02-07T05:27:26.316Z,129.80
2019-02-07T05:30:06.089Z,123.30
2019-02-07T05:32:39.917Z,139.93
2019-02-07T05:35:12.917Z,131.57
2019-02-07T05:37:49.567Z,132.87
2019-02-07T05:40:24.906Z,129.40
2019-02-07T05:43:01.597Z,125.77
2019-02-07T05:45:35.502Z,130.20
2019-02-07T05:48:12.457Z,137.67
2019-02-07T05:50:58.538Z,137.90
2019-02-07T05:53:29.536Z,137.73
2019-02-07T05:56:09.553Z,134.00
2019-02-07T05:58:59.227Z,146.23
2019-02-07T06:01:45.973Z,129.27
2019-02-07T06:04:16.973Z,132.20
2019-02-07T06:06:59.893Z,130.40
2019-02-07T06:09:49.040Z,134.43
2019-02-07T06:12:25.495Z,129.50
2019-02-07T06:15:12.701Z,132.60
2019-02-07T06:17:46.603Z,132.33
2019-02-07T06:20:26.429Z,130.67
2019-02-07T06:22:57.388Z,140.37
2019-02-07T06:25:44.713Z,134.53
2019-02-07T06:28:21.469Z,134.50
2019-02-07T06:30:52.464Z,142.57
2019-02-07T06:33:38.270Z,133.77
2019-02-07T06:36:17.868Z,135.40
2019-02-07T06:38:51.842Z,130.43
2019-02-07T06:41:28.510Z,135.17
2019-02-07T06:44:02.261Z,135.63
2019-02-07T06:46:42.355Z,131.47
2019-02-07T06:49:19.076Z,132.53
2019-02-07T06:52:07.915Z,136.27
2019-02-07T06:54:44.927Z,128.63
2019-02-07T06:57:18.693Z,132.30
2019-02-07T06:59:49.651Z,132.33
2019-02-07T07:02:36.936Z,124.33
2019-02-07T07:05:12.543Z,131.80
2019-02-07T07:07:55.487Z,134.83
2019-02-07T07:10:26.437Z,130.87
2019-02-07T07:12:57.797Z,123.93
2019-02-07T07:15:34.936Z,131.83
2019-02-07T07:18:08.525Z,129.20
2019-02-07T07:20:48.580Z,123.33
2019-02-07T07:23:34.371Z,127.27
2019-02-07T07:26:14.481Z,129.87
2019-02-07T07:28:48.364Z,128.53
2019-02-07T07:31:35.317Z,119.83
2019-02-07T07:34:15.059Z,128.93
2019-02-07T07:36:54.868Z,129.77
2019-02-07T07:39:32.061Z,140.47
2019-02-07T07:42:19.160Z,133.57
2019-02-07T07:44:59.597Z,125.27
2019-02-07T07:47:36.700Z,118.00
2019-02-07T07:50:16.662Z,131.60
2019-02-07T07:52:50.347Z,127.67
2019-02-07T07:55:24.312Z,114.73
2019-02-07T07:58:07.336Z,132.07
2019-02-07T08:00:44.358Z,133.10
2019-02-07T08:03:15.407Z,122.30
2019-02-07T08:05:53.450Z,120.20
2019-02-07T08:08:40.818Z,125.63
2019-02-07T08:11:28.182Z,124.67
2019-02-07T08:14:02.305Z,130.00
2019-02-07T08:16:49.320Z,115.40
2019-02-07T08:19:36.655Z,116.33
2019-02-07T08:22:10.860Z,121.17
2019-02-07T08:24:44.514Z,130.10
2019-02-07T08:27:33.662Z,139.50
2019-02-07T08:30:10.365Z,124.57
2019-02-07T08:32:50.146Z,132.83
2019-02-07T08:35:23.796Z,124.33
2019-02-07T08:38:03.575Z,124.47
2019-02-07T08:40:52.592Z,117.20
2019-02-07T08:43:23.601Z,131.07
2019-02-07T08:46:00.561Z,125.03
2019-02-07T08:48:40.533Z,119.13
2019-02-07T08:51:14.180Z,132.30
2019-02-07T08:53:50.889Z,119.83
2019-02-07T08:56:28.164Z,131.33
2019-02-07T08:59:15.461Z,109.53
2019-02-07T09:01:49.385Z,113.80
2019-02-07T09:04:20.374Z,116.40
2019-02-07T09:06:51.324Z,129.33
2019-02-07T09:09:25.185Z,115.83
2019-02-07T09:11:56.181Z,124.53
2019-02-07T09:14:33.229Z,117.03
2019-02-07T09:17:20.854Z,119.40
2019-02-07T09:20:03.946Z,119.73
2019-02-07T09:22:51.225Z,121.07
2019-02-07T09:25:40.232Z,117.57
2019-02-07T09:28:29.115Z,115.93
2019-02-07T09:31:16.187Z,121.50
2019-02-07T09:33:52.721Z,119.50
2019-02-07T09:36:39.817Z,113.07
2019-02-07T09:39:13.476Z,123.20
2019-02-07T09:42:00.629Z,121.90
2019-02-07T09:44:41.555Z,127.63
2019-02-07T09:47:27.616Z,116.87
2019-02-07T09:50:01.277Z,111.37
2019-02-07T09:52:32.268Z,120.80
2019-02-07T09:55:06.009Z,118.30
2019-02-07T09:57:39.969Z,126.93
2019-02-07T10:00:19.983Z,121.17
2019-02-07T10:02:50.985Z,126.07
2019-02-07T10:05:30.649Z,120.37
2019-02-07T10:08:10.457Z,127.90
2019-02-07T10:10:57.321Z,123.70
2019-02-07T10:13:44.561Z,120.67
2019-02-07T10:16:24.263Z,122.07
2019-02-07T10:19:01.317Z,136.27
2019-02-07T10:21:32.274Z,121.30
2019-02-07T10:24:03.269Z,123.60
2019-02-07T10:26:40.298Z,123.70
2019-02-07T10:29:26.548Z,128.13
2019-02-07T10:32:00.299Z,124.10
2019-02-07T10:34:48.709Z,126.70
2019-02-07T10:37:19.704Z,122.27
2019-02-07T10:40:05.572Z,126.17
2019-02-07T10:42:36.528Z,126.63
2019-02-07T10:45:11.012Z,117.07
2019-02-07T10:47:57.396Z,134.27
2019-02-07T10:50:37.218Z,126.47
2019-02-07T10:53:26.276Z,124.37
2019-02-07T10:55:57.453Z,129.80
2019-02-07T10:58:28.412Z,123.73
2019-02-07T11:01:05.184Z,127.20
2019-02-07T11:03:41.988Z,128.73
2019-02-07T11:06:30.577Z,132.93
2019-02-07T11:09:16.612Z,137.90
2019-02-07T11:12:02.573Z,139.00
2019-02-07T11:14:52.615Z,139.63
2019-02-07T11:17:39.968Z,135.47
2019-02-07T11:20:32.991Z,145.40
2019-02-07T11:23:13.744Z,140.80
2019-02-07T11:26:00.817Z,137.43
2019-02-07T11:28:31.802Z,137.13
2019-02-07T11:31:02.859Z,128.07
2019-02-07T11:33:46.002Z,122.50
2019-02-07T11:36:19.937Z,130.53
2019-02-07T11:38:56.653Z,132.33
2019-02-07T11:41:39.489Z,121.33
2019-02-07T11:44:13.140Z,130.47
2019-02-07T11:47:07.291Z,127.60
2019-02-07T11:49:43.142Z,124.43
2019-02-07T11:52:19.926Z,119.37
2019-02-07T11:54:53.632Z,126.77
2019-02-07T11:57:36.858Z,135.30
2019-02-07T12:00:16.697Z,130.13
2019-02-07T12:02:47.653Z,129.37
2019-02-07T12:05:35.043Z,121.83
2019-02-07T12:08:06.060Z,129.93
2019-02-07T12:10:43.025Z,120.80
2019-02-07T12:13:16.952Z,129.87
2019-02-07T12:15:47.946Z,138.07
2019-02-07T12:18:25.381Z,136.53
2019-02-07T12:21:08.197Z,140.93
2019-02-07T12:23:53.980Z,143.77
2019-02-07T12:26:24.975Z,139.13
2019-02-07T12:28:56.898Z,134.23
2019-02-07T12:31:27.886Z,137.43
2019-02-07T12:34:10.639Z,146.50
2019-02-07T12:36:57.778Z,148.67
2019-02-07T12:39:46.661Z,144.57
2019-02-07T12:42:26.717Z,149.63
2019-02-07T12:45:13.733Z,136.90
2019-02-07T12:48:00.757Z,143.20
2019-02-07T12:50:46.573Z,152.00
2019-02-07T12:53:23.241Z,144.53
2019-02-07T12:56:06.200Z,143.00
2019-02-07T12:58:37.192Z,151.30
2019-02-07T13:01:11.104Z,135.43
2019-02-07T13:03:56.714Z,140.40
2019-02-07T13:06:30.566Z,143.63
2019-02-07T13:09:01.548Z,133.77
2019-02-07T13:11:35.525Z,140.73
2019-02-07T13:14:06.908Z,133.40
2019-02-07T13:16:49.978Z,140.03
2019-02-07T13:19:40.548Z,134.73
2019-02-07T13:22:25.675Z,137.40
2019-02-07T13:25:05.851Z,136.93
2019-02-07T13:27:39.797Z,135.93
2019-02-07T13:30:34.811Z,142.47
2019-02-07T13:33:09.703Z,144.63
2019-02-07T13:35:40.733Z,136.07
2019-02-07T13:38:20.810Z,135.67
2019-02-07T13:40:51.936Z,139.77
2019-02-07T13:43:22.922Z,141.83
2019-02-07T13:46:02.632Z,133.17
2019-02-07T13:48:45.673Z,126.47
2019-02-07T13:51:19.442Z,140.30
2019-02-07T13:53:59.369Z,137.47
2019-02-07T13:56:47.230Z,140.87
2019-02-07T13:59:29.313Z,131.10
2019-02-07T14:02:16.557Z,127.40
2019-02-07T14:04:53.587Z,123.17
2019-02-07T14:07:30.141Z,132.37
2019-02-07T14:10:09.990Z,130.63
2019-02-07T14:12:46.692Z,142.03
2019-02-07T14:15:17.880Z,130.50
2019-02-07T14:18:06.705Z,123.80
2019-02-07T14:20:53.978Z,123.90
2019-02-07T14:23:31.750Z,133.70
2019-02-07T14:26:03.985Z,131.90
2019-02-07T14:28:37.434Z,130.70
2019-02-07T14:31:11.185Z,133.43
2019-02-07T14:33:42.139Z,118.03
2019-02-07T14:36:13.218Z,127.27
2019-02-07T14:38:59.559Z,131.27
2019-02-07T14:41:39.967Z,125.37
2019-02-07T14:44:22.707Z,134.77
2019-02-07T14:46:52.382Z,128.13
2019-02-07T14:49:21.934Z,121.53
2019-02-07T14:51:51.278Z,131.63
2019-02-07T14:54:20.595Z,130.20
2019-02-07T14:56:50.914Z,133.93
2019-02-07T14:59:20.208Z,124.00
2019-02-07T15:01:49.646Z,114.57
2019-02-07T15:04:19.010Z,128.43
2019-02-07T15:06:48.947Z,131.67
2019-02-07T15:09:18.254Z,126.97
2019-02-07T15:11:47.596Z,130.50
2019-02-07T15:14:17.879Z,125.73
2019-02-07T15:16:47.231Z,128.93
2019-02-07T15:19:16.530Z,128.40
2019-02-07T15:21:45.877Z,117.03
2019-02-07T15:24:15.185Z,124.43
2019-02-07T15:26:44.823Z,118.50
2019-02-07T15:29:15.998Z,118.80
2019-02-07T15:31:45.096Z,115.70
2019-02-07T15:34:14.404Z,114.57
2019-02-07T15:36:43.992Z,114.83
2019-02-07T15:39:15.025Z,117.63
2019-02-07T15:41:44.393Z,118.80
2019-02-07T15:44:13.729Z,117.80
2019-02-07T15:46:43.075Z,117.37
2019-02-07T15:49:12.416Z,119.27
2019-02-07T15:51:41.716Z,132.60
2019-02-07T15:54:11.065Z,124.20
2019-02-07T15:56:40.380Z,122.47
2019-02-07T15:59:14.543Z,120.43
2019-02-07T16:01:45.504Z,118.90
2019-02-07T16:04:17.454Z,130.37
2019-02-07T16:06:46.765Z,115.73
2019-02-07T16:09:16.193Z,124.07
2019-02-07T16:11:45.498Z,117.43
2019-02-07T16:14:14.855Z,113.97
2019-02-07T16:16:44.157Z,118.97
2019-02-07T16:19:13.505Z,117.20
2019-02-07T16:21:42.805Z,127.30
2019-02-07T16:24:12.145Z,119.97
2019-02-07T16:26:41.448Z,119.87
2019-02-07T16:29:10.800Z,117.47
2019-02-07T16:31:40.098Z,107.97
2019-02-07T16:34:09.456Z,122.67
2019-02-07T16:36:38.772Z,123.23
2019-02-07T16:39:08.116Z,128.00
2019-02-07T16:41:37.504Z,129.43
2019-02-07T16:44:06.869Z,134.27
2019-02-07T16:46:36.176Z,107.97
2019-02-07T16:49:05.544Z,120.97
2019-02-07T16:51:34.856Z,111.67
2019-02-07T16:54:04.208Z,114.27
2019-02-07T16:56:33.517Z,121.37
2019-02-07T16:59:02.859Z,130.60
2019-02-07T17:01:32.177Z,122.87
2019-02-07T17:04:01.537Z,128.20
2019-02-07T17:06:31.001Z,128.03
2019-02-07T17:09:00.353Z,124.97
2019-02-07T17:11:31.232Z,124.53
2019-02-07T17:14:00.574Z,127.43
2019-02-07T17:16:29.881Z,116.53
2019-02-07T17:18:59.228Z,118.27
2019-02-07T17:21:28.532Z,120.93
2019-02-07T17:23:57.885Z,110.57
2019-02-07T17:26:27.205Z,111.47
2019-02-07T17:28:56.548Z,110.60
2019-02-07T17:31:25.853Z,106.63
2019-02-07T17:33:55.226Z,105.40
2019-02-07T17:36:24.526Z,104.00
2019-02-07T17:38:53.833Z,99.87
2019-02-07T17:41:23.205Z,102.63
2019-02-07T17:43:52.512Z,89.53
2019-02-07T17:46:21.856Z,91.90
2019-02-07T17:48:51.168Z,94.87
2019-02-07T17:51:23.404Z,83.87
2019-02-07T17:53:51.504Z,97.83
2019-02-07T17:56:20.928Z,179.73
2019-02-07T17:58:50.255Z,135.80
2019-02-07T18:01:19.647Z,86.87
2019-02-07T18:03:48.924Z,76.03
2019-02-07T18:06:18.282Z,86.13
2019-02-07T18:08:47.578Z,88.63
2019-02-07T18:11:17.887Z,85.30
2019-02-07T18:13:47.197Z,80.13
2019-02-07T18:16:16.546Z,105.40
2019-02-07T18:18:45.853Z,82.17
2019-02-07T18:21:16.165Z,77.20
2019-02-07T18:23:45.472Z,71.03
2019-02-07T18:26:15.281Z,71.00
2019-02-07T18:28:44.581Z,75.33
2019-02-07T18:31:13.920Z,72.87
2019-02-07T18:33:43.220Z,75.33
2019-02-07T18:36:12.559Z,89.10
2019-02-07T18:38:41.857Z,77.23
2019-02-07T18:41:11.210Z,91.90
2019-02-07T18:43:40.519Z,69.87
2019-02-07T18:46:09.868Z,65.47
2019-02-07T18:48:39.167Z,72.90
2019-02-07T18:51:08.913Z,61.67
2019-02-07T18:53:38.213Z,59.20
2019-02-07T18:56:07.574Z,72.77
2019-02-07T18:58:36.985Z,66.10
2019-02-07T19:01:06.333Z,62.57
2019-02-07T19:03:35.644Z,68.90
2019-02-07T19:06:05.395Z,65.30
2019-02-07T19:08:34.706Z,64.73
2019-02-07T19:11:04.049Z,63.17
2019-02-07T19:13:33.367Z,75.63
2019-02-07T19:16:03.940Z,60.10
2019-02-07T19:18:33.250Z,70.03
2019-02-07T19:21:03.094Z,65.00
2019-02-07T19:23:32.471Z,72.97
2019-02-07T19:26:02.225Z,69.43
2019-02-07T19:28:32.961Z,80.13
2019-02-07T19:31:02.377Z,70.03
2019-02-07T19:33:32.049Z,75.23
2019-02-07T19:36:02.214Z,72.30
2019-02-07T19:38:33.007Z,66.83
2019-02-07T19:41:02.653Z,70.90
2019-02-07T19:43:33.329Z,68.93
2019-02-07T19:46:05.591Z,71.53
2019-02-07T19:48:34.962Z,64.73
2019-02-07T19:51:06.179Z,74.63
2019-02-07T19:53:35.486Z,71.67
2019-02-07T19:56:06.581Z,79.43
2019-02-07T19:58:35.957Z,66.13
2019-02-07T20:01:06.372Z,76.97
2019-02-07T20:03:35.956Z,73.27
2019-02-07T20:06:07.988Z,107.87
2019-02-07T20:08:37.356Z,77.13
2019-02-07T20:11:06.797Z,94.63
2019-02-07T20:13:36.171Z,93.97
2019-02-07T20:16:05.593Z,82.53
2019-02-07T20:18:36.649Z,90.87
2019-02-07T20:21:06.023Z,106.23
2019-02-07T20:23:35.374Z,111.73
2019-02-07T20:26:04.750Z,120.63
2019-02-07T20:28:34.117Z,125.73
2019-02-07T20:31:03.486Z,93.63
2019-02-07T20:33:32.844Z,119.27
2019-02-07T20:36:02.138Z,92.83
2019-02-07T20:38:31.549Z,83.23
2019-02-07T20:41:01.022Z,97.90
2019-02-07T20:43:30.764Z,87.33
2019-02-07T20:46:00.073Z,96.33
2019-02-07T20:48:29.508Z,81.90
2019-02-07T20:50:59.617Z,86.23
2019-02-07T20:53:29.256Z,85.33
2019-02-07T20:55:59.201Z,86.60
2019-02-07T20:58:30.115Z,87.53
2019-02-07T21:00:59.589Z,83.77
2019-02-07T21:03:29.000Z,85.40
2019-02-07T21:05:58.364Z,83.47
2019-02-07T21:08:28.225Z,78.20
2019-02-07T21:10:57.525Z,110.13
2019-02-07T21:13:27.177Z,90.50
2019-02-07T21:15:56.483Z,97.50
2019-02-07T21:18:25.916Z,98.00
2019-02-07T21:20:55.202Z,83.27
2019-02-07T21:23:24.692Z,87.57
2019-02-07T21:25:54.500Z,93.27
2019-02-07T21:28:23.913Z,80.60
2019-02-07T21:30:53.289Z,83.40
2019-02-07T21:33:22.633Z,88.33
2019-02-07T21:35:52.001Z,87.27
2019-02-07T21:38:21.416Z,88.00
2019-02-07T21:40:51.226Z,85.33
2019-02-07T21:43:20.649Z,86.33
2019-02-07T21:45:50.020Z,80.53
2019-02-07T21:48:19.437Z,88.83
2019-02-07T21:50:48.828Z,88.13
2019-02-07T21:53:18.246Z,86.23
2019-02-07T21:55:47.620Z,90.50
2019-02-07T21:58:17.576Z,86.03
2019-02-07T22:00:47.063Z,91.17
2019-02-07T22:03:16.465Z,88.10
2019-02-07T22:05:46.248Z,99.97
2019-02-07T22:08:15.704Z,94.93
2019-02-07T22:10:45.016Z,100.27
2019-02-07T22:13:14.978Z,96.63
2019-02-07T22:15:44.371Z,106.37
2019-02-07T22:18:16.905Z,101.50
2019-02-07T22:20:46.264Z,106.57
2019-02-07T22:23:15.571Z,107.63
2019-02-07T22:25:44.916Z,114.83
2019-02-07T22:28:14.238Z,113.70
2019-02-07T22:30:43.580Z,114.10
2019-02-07T22:33:12.894Z,106.00
2019-02-07T22:35:42.240Z,105.67
2019-02-07T22:38:11.552Z,118.13
2019-02-07T22:40:40.897Z,122.23
2019-02-07T22:43:10.512Z,121.00
2019-02-07T22:45:39.929Z,126.23
2019-02-07T22:48:09.240Z,113.33
2019-02-07T22:50:38.658Z,115.73
2019-02-07T22:53:07.964Z,118.97
2019-02-07T22:55:37.333Z,121.87
2019-02-07T22:58:07.477Z,121.93
2019-02-07T23:00:44.356Z,115.97
2019-02-07T23:03:15.897Z,111.40
2019-02-07T23:05:45.966Z,126.93
2019-02-07T23:08:15.320Z,120.83
2019-02-07T23:10:44.968Z,130.13
2019-02-07T23:13:14.275Z,119.00
2019-02-07T23:15:43.639Z,124.43
2019-02-07T23:18:12.934Z,124.43
2019-02-07T23:20:42.285Z,116.03
2019-02-07T23:23:11.961Z,118.23
2019-02-07T23:25:41.700Z,118.70
2019-02-07T23:28:11.016Z,122.00
2019-02-07T23:30:40.349Z,119.83
2019-02-07T23:33:09.649Z,115.90
2019-02-07T23:35:38.996Z,109.20
2019-02-07T23:38:08.311Z,118.20
2019-02-07T23:40:38.000Z,116.33
2019-02-07T23:43:08.052Z,129.83
2019-02-07T23:45:37.405Z,126.47
2019-02-07T23:48:06.706Z,121.27
2019-02-07T23:50:37.017Z,113.40
2019-02-07T23:53:14.410Z,116.30
2019-02-07T23:55:37.355Z,129.63
2019-02-07T23:58:06.657Z,122.23
